Flight Track Log - Related Links

Times and Time Zones

All times are in EDT time to prevent confusion due to time zone crossing. See the SKW4696 flight status page for this flight to view local times or setup timezone preferences in your user account.

Time Position Orientation Groundspeed Altitude Reporting Facility
EDT Latitude Longitude Course Direction KTS MPH feet Rate Location/Type
Thu 04:34:22 PM 39.0500 -84.7000 21° North 190 219 1,400  Level Cincinnati TRACON
Thu 04:34:34 PM 39.0500 -84.7167 270° West 190 219 2,100 2,597 Climbing Cincinnati TRACON
Thu 04:35:29 PM 39.0833 -84.7667 311° West 256 295 4,300 2,557 Climbing Cincinnati TRACON
Thu 04:36:29 PM 39.1500 -84.7333 21° North 293 337 7,000 2,545 Climbing Cincinnati TRACON
Thu 04:37:00 PM 39.1741 -84.4389 347° North  Level FlightAware Approximate
Thu 04:37:08 PM 39.1964 -84.7272 North 289 333 8,500  Level Indianapolis Center
Thu 04:38:00 PM 39.2876 -84.4750 343° North  Level FlightAware Approximate
Thu 04:38:09 PM 39.2800 -84.6986 15° North 302 348 11,000  Level Indianapolis Center
Thu 04:39:00 PM 39.3993 -84.5197 343° North  Level FlightAware Approximate
Thu 04:39:11 PM 39.3703 -84.6656 16° North 326 375 13,200  Level Indianapolis Center
Thu 04:40:00 PM 39.5110 -84.5644 343° North  Level FlightAware Approximate
Thu 04:40:13 PM 39.4667 -84.6308 16° North 348 400 15,700  Level Indianapolis Center
Thu 04:41:00 PM 39.6232 -84.5634 21° North  Level FlightAware Approximate
Thu 04:41:15 PM 39.5850 -84.5911 15° North 361 415 18,200  Level Indianapolis Center
Thu 04:42:17 PM 39.6917 -84.5764 North 377 434 19,700 1,355 Climbing Indianapolis Center
Thu 04:43:19 PM 39.7981 -84.5606 North 378 435 21,000 629 Climbing Indianapolis Center
Thu 04:44:21 PM 39.9086 -84.5428 North 390 449 21,000  Level Indianapolis Center
Thu 04:45:23 PM 40.0233 -84.5256 North 404 465 21,000  Level Indianapolis Center
Thu 04:46:25 PM 40.1403 -84.5094 North 412 474 21,000  Level Indianapolis Center
Thu 04:47:26 PM 40.2592 -84.4917 North 421 484 21,000  Level Indianapolis Center
Thu 04:48:28 PM 40.4008 -84.4692 North 423 487 21,000  Level Indianapolis Center
Thu 04:49:30 PM 40.5192 -84.4508 North 424 488 21,000  Level Indianapolis Center
Thu 04:50:32 PM 40.6369 -84.4339 North 426 490 21,000  Level Indianapolis Center
Thu 04:51:34 PM 40.7497 -84.4167 North 415 478 21,000  Level Indianapolis Center
Thu 04:52:35 PM 40.8603 -84.4194 359° North 401 461 21,000 -146 Level Indianapolis Center
Thu 04:53:37 PM 40.9681 -84.4231 359° North 395 455 20,700 -823 Descending Indianapolis Center
Thu 04:54:39 PM 41.0703 -84.4250 359° North 375 432 19,300 -1,452 Descending Indianapolis Center
Thu 04:55:41 PM 41.1639 -84.4272 359° North 349 402 17,700 -1,610 Descending Indianapolis Center
Thu 04:56:42 PM 41.2675 -84.3947 13° North 336 387 16,000 -1,374 Descending Indianapolis Center
Thu 04:57:52 PM 41.3567 -84.3375 26° Northeast 334 384 14,700 -1,227 Descending Cleveland Center
Thu 04:58:54 PM 41.4347 -84.2892 25° Northeast 320 368 13,300 -1,473 Descending Cleveland Center
Thu 04:59:42 PM 41.5067 -84.2458 24° Northeast 307 353 12,000 -1,355 Descending Cleveland Center
Thu 04:59:56 PM 41.5111 -84.2414 37° Northeast 310 357 11,900  Descending Cleveland Center
Thu 05:00:58 PM 41.6042 -84.1822 25° Northeast 309 356 12,000 97 Climbing Cleveland Center
Thu 05:02:00 PM 41.6836 -84.1306 26° Northeast 310 357 12,100 48 Climbing Cleveland Center
Thu 05:03:02 PM 41.7642 -84.0792 25° Northeast 320 368 12,100  Level Cleveland Center
Thu 05:04:04 PM 41.8375 -84.0181 32° Northeast 320 368 12,100 -793 Level Cleveland Center
Thu 05:05:03 PM 41.8736 -83.9011 67° East 310 357 10,500 -1,403 Descending Cleveland Center
Thu 05:06:08 PM 41.9044 -83.8089 66° East 308 354 9,200 -1,512 Descending Cleveland Center
Thu 05:07:10 PM 41.9428 -83.6964 65° Northeast 282 325 7,300 -1,887 Descending Cleveland Center
Thu 05:08:12 PM 41.9733 -83.6106 64° Northeast 263 303 5,300 -1,547 Descending Cleveland Center
Thu 05:09:18 PM 42.0153 -83.5286 55° Northeast 200 230 4,000 -684 Descending Cleveland Center
Thu 05:10:06 PM 42.0492 -83.4969 35° Northeast 186 214 4,000 103 Level Cleveland Center
Thu 05:10:16 PM 42.0500 -83.4953 56° Northeast 201 231 4,100 -885 Climbing Cleveland Center
Thu 05:11:07 PM 42.0961 -83.4614 29° Northeast 188 216 3,100 -871 Descending Cleveland Center
Thu 05:11:18 PM 42.0956 -83.4617 200° South 192 221 3,200 -885 Climbing Cleveland Center
Thu 05:12:08 PM 42.1339 -83.4331 29° Northeast 114 131 2,200 -871 Descending Cleveland Center
Thu 05:12:20 PM 42.1386 -83.4306 21° North 154 177 2,300 -500 Climbing Cleveland Center
Thu 05:13:08 PM 42.1625 -83.4144 27° Northeast 117 135 1,700 -677 Descending Cleveland Center
Thu 05:13:22 PM 42.1650 -83.4094 56° Northeast 125 144 1,600 -806 Descending Cleveland Center
Thu 05:14:15 PM 42.1961 -83.3883 27° Northeast 127 146 800 -906 Descending Cleveland Center

Login

Don't have an account? Register now (free) for customized features, flight alerts, and more!